Time;durP1;ratioP1;P1;durP2;ratioP2;P2;SDS_P1;SDS_P2;PMS_P1;PMS_P2;Temp;Humidity;BMP_temperature;BMP_pressure;BME280_temperature;BME280_humidity;BME280_pressure;Samples;Min_cycle;Max_cycle;Signal;HPM_P1;HPM_P2
2022/03/11 00:02:36;;;;;;;;;29.60;27.00;;;;;2.52;34.97;100507.97;6289762;27;98108;-62
2022/03/11 00:05:40;;;;;;;;;32.00;29.00;;;;;2.81;34.46;100548.09;6281142;27;97021;-63
2022/03/11 00:08:43;;;;;;;;;32.50;26.00;;;;;2.77;34.32;100544.00;6288024;27;98451;-63
2022/03/11 00:11:48;;;;;;;;;32.60;26.80;;;;;2.73;34.62;100547.91;6290363;27;97536;-63
2022/03/11 00:14:51;;;;;;;;;30.00;27.50;;;;;2.70;34.59;100547.31;6288898;27;96708;-63
2022/03/11 00:17:54;;;;;;;;;28.00;26.00;;;;;2.68;34.62;100538.63;6289552;27;97589;-63
2022/03/11 00:20:57;;;;;;;;;32.20;27.80;;;;;2.71;34.56;100539.19;6288804;27;97534;-63
2022/03/11 00:24:00;;;;;;;;;29.00;26.00;;;;;2.70;34.66;100537.50;6288291;27;97047;-62
2022/03/11 00:27:06;;;;;;;;;29.40;26.00;;;;;2.64;34.84;100534.53;6288545;27;97594;-63
2022/03/11 00:30:10;;;;;;;;;30.00;26.50;;;;;2.58;34.93;100530.56;6289288;27;97425;-63
2022/03/11 00:33:13;;;;;;;;;32.80;26.80;;;;;2.62;34.86;100524.00;6289541;27;97923;-63
2022/03/11 00:36:16;;;;;;;;;31.75;26.00;;;;;2.64;35.10;100521.22;6288624;27;99685;-63
2022/03/11 00:39:20;;;;;;;;;31.00;28.40;;;;;2.61;35.24;100523.16;6295736;27;98612;-63
2022/03/11 00:42:25;;;;;;;;;31.25;27.25;;;;;2.43;35.28;100519.41;6287661;27;96418;-62
2022/03/11 00:45:28;;;;;;;;;27.40;25.40;;;;;2.38;35.75;100529.59;6285246;27;97917;-62
2022/03/11 00:48:32;;;;;;;;;33.60;29.00;;;;;2.41;35.11;100534.66;6287360;27;96620;-63
2022/03/11 00:51:35;;;;;;;;;32.20;29.00;;;;;2.50;35.52;100527.69;6287721;27;97470;-63
2022/03/11 00:54:38;;;;;;;;;34.60;30.00;;;;;2.53;35.49;100524.78;6288015;27;97569;-63
2022/03/11 00:57:43;;;;;;;;;31.60;27.00;;;;;2.50;35.18;100525.88;6278663;27;97205;-63
2022/03/11 01:00:46;;;;;;;;;31.75;29.50;;;;;2.51;35.15;100529.41;6285140;27;99753;-62
2022/03/11 01:03:50;;;;;;;;;33.00;28.00;;;;;2.48;35.43;100535.00;6288456;27;96509;-63
2022/03/11 01:06:53;;;;;;;;;34.00;29.80;;;;;2.48;35.47;100535.84;6289075;27;97550;-63
2022/03/11 01:09:57;;;;;;;;;33.80;29.40;;;;;2.49;35.71;100537.50;6289449;27;98146;-63
2022/03/11 01:13:02;;;;;;;;;35.00;30.00;;;;;2.43;35.86;100534.53;6289181;27;96346;-62
2022/03/11 01:16:06;;;;;;;;;37.25;30.00;;;;;2.29;36.04;100526.88;6298441;27;97136;-63
2022/03/11 01:19:09;;;;;;;;;34.00;29.00;;;;;2.28;36.02;100533.16;6288669;27;97093;-63
2022/03/11 01:22:12;;;;;;;;;38.80;31.80;;;;;2.21;36.10;100524.00;6287410;27;98771;-62
2022/03/11 01:25:16;;;;;;;;;40.20;32.80;;;;;2.19;36.09;100521.47;6288466;27;97588;-63
2022/03/11 01:28:20;;;;;;;;;34.40;30.40;;;;;2.16;36.58;100525.22;6287036;27;98535;-63
2022/03/11 01:31:23;;;;;;;;;35.00;30.00;;;;;2.19;36.30;100516.16;6287612;27;96629;-63
2022/03/11 01:34:27;;;;;;;;;34.60;30.00;;;;;2.29;36.37;100519.72;6286314;27;99883;-63
2022/03/11 01:37:30;;;;;;;;;41.00;32.00;;;;;2.13;36.47;100514.00;6288564;27;96840;-62
2022/03/11 01:40:33;;;;;;;;;37.00;32.00;;;;;2.17;36.51;100518.94;6287331;27;96463;-62
2022/03/11 01:43:58;;;;;;;;;41.50;32.50;;;;;2.22;36.54;100520.38;6286233;27;96555;-62
2022/03/11 01:47:01;;;;;;;;;33.50;29.50;;;;;2.23;36.39;100522.91;6288527;27;96952;-63
2022/03/11 01:50:05;;;;;;;;;38.40;30.40;;;;;2.20;36.76;100522.31;6288652;27;96375;-63
2022/03/11 01:53:09;;;;;;;;;35.00;30.00;;;;;2.15;36.40;100518.22;6288083;27;96702;-63
2022/03/11 01:56:14;;;;;;;;;35.00;30.00;;;;;2.16;36.57;100521.72;6264052;27;96719;-63
2022/03/11 01:59:19;;;;;;;;;38.00;31.25;;;;;2.08;36.97;100525.03;6277214;27;96681;-62
2022/03/11 02:02:22;;;;;;;;;39.60;32.00;;;;;2.10;36.50;100528.38;6287299;27;97557;-63
2022/03/11 02:05:26;;;;;;;;;34.25;30.00;;;;;1.94;37.17;100530.66;6303918;27;96709;-62
2022/03/11 02:08:30;;;;;;;;;34.00;30.00;;;;;1.99;37.07;100525.78;6278632;27;97468;-63
2022/03/11 02:11:33;;;;;;;;;35.00;30.00;;;;;1.95;36.95;100528.84;6273380;27;96281;-63
2022/03/11 02:14:37;;;;;;;;;37.00;31.00;;;;;1.97;37.43;100534.84;6287192;27;97424;-63
2022/03/11 02:17:41;;;;;;;;;37.60;30.00;;;;;2.00;37.51;100538.13;6287670;27;96572;-63
2022/03/11 02:20:46;;;;;;;;;39.50;32.50;;;;;2.00;37.15;100534.63;6285171;27;100087;-63
2022/03/11 02:23:52;;;;;;;;;41.25;32.25;;;;;2.03;36.96;100540.53;6286359;27;97227;-63
2022/03/11 02:26:55;;;;;;;;;38.60;31.00;;;;;1.95;37.17;100540.34;6286392;27;98092;-62
2022/03/11 02:29:59;;;;;;;;;36.40;32.00;;;;;1.93;37.50;100539.59;6267296;27;98510;-62
2022/03/11 02:33:02;;;;;;;;;35.25;31.00;;;;;1.89;37.88;100545.28;6285124;27;97092;-63
2022/03/11 02:36:06;;;;;;;;;35.40;30.00;;;;;1.83;37.78;100545.78;6286001;27;96823;-63
2022/03/11 02:39:13;;;;;;;;;37.25;30.25;;;;;1.88;37.75;100539.13;6283024;27;99603;-62
2022/03/11 02:42:16;;;;;;;;;38.00;32.00;;;;;1.93;37.75;100536.94;6263910;27;97542;-62
2022/03/11 02:45:20;;;;;;;;;36.40;31.40;;;;;1.93;37.60;100530.78;6285547;27;96713;-62
2022/03/11 02:48:23;;;;;;;;;41.25;33.00;;;;;1.94;37.45;100535.97;6287601;27;96380;-62
2022/03/11 02:51:26;;;;;;;;;34.20;30.80;;;;;1.87;37.38;100536.59;6287659;27;96469;-62
2022/03/11 02:54:31;;;;;;;;;36.00;30.00;;;;;1.80;37.74;100548.72;6288458;27;97160;-63
2022/03/11 02:57:34;;;;;;;;;37.50;32.25;;;;;1.84;37.38;100545.69;6282354;27;96819;-63
2022/03/11 03:00:38;;;;;;;;;33.00;28.00;;;;;1.78;37.69;100546.16;6291016;27;96691;-62
2022/03/11 03:03:41;;;;;;;;;36.00;30.00;;;;;1.76;37.93;100545.44;6290695;27;97446;-63
2022/03/11 03:06:45;;;;;;;;;33.60;30.00;;;;;1.64;37.68;100546.47;6288413;27;98618;-63
2022/03/11 03:09:50;;;;;;;;;34.20;30.00;;;;;1.48;38.30;100548.66;6291499;27;96461;-63
2022/03/11 03:12:53;;;;;;;;;34.20;30.20;;;;;1.41;37.90;100545.66;6289246;27;97260;-63
2022/03/11 03:15:56;;;;;;;;;35.80;31.00;;;;;1.43;37.93;100546.38;6290783;27;96702;-63
2022/03/11 03:19:00;;;;;;;;;34.00;31.00;;;;;1.43;38.23;100550.81;6291696;27;97101;-62
2022/03/11 03:22:04;;;;;;;;;37.60;29.40;;;;;1.43;38.08;100554.34;6291919;27;96392;-62
2022/03/11 03:25:09;;;;;;;;;36.75;30.00;;;;;1.43;38.22;100554.34;6291273;27;97489;-63
2022/03/11 03:28:13;;;;;;;;;36.50;30.00;;;;;1.47;38.13;100545.16;6291433;27;96534;-63
2022/03/11 03:31:18;;;;;;;;;35.00;30.00;;;;;1.41;38.19;100550.97;6292086;27;96945;-63
2022/03/11 03:34:21;;;;;;;;;35.00;30.00;;;;;1.41;37.93;100548.31;6291471;27;97414;-63
2022/03/11 03:37:25;;;;;;;;;33.40;28.20;;;;;1.41;38.22;100542.16;6290187;27;96598;-63
2022/03/11 03:40:29;;;;;;;;;37.80;31.00;;;;;1.41;38.01;100545.66;6290655;27;97050;-63
2022/03/11 03:43:32;;;;;;;;;35.40;30.00;;;;;1.37;37.97;100544.19;6288306;27;98149;-63
2022/03/11 03:46:36;;;;;;;;;39.40;32.00;;;;;1.33;38.31;100544.56;6291028;27;96384;-63
2022/03/11 03:49:39;;;;;;;;;38.40;32.00;;;;;1.18;38.51;100526.22;6290262;27;97754;-63
2022/03/11 03:52:43;;;;;;;;;35.00;30.00;;;;;1.16;38.16;100535.28;6290253;27;97478;-63
2022/03/11 03:55:47;;;;;;;;;38.40;31.80;;;;;1.08;38.33;100529.72;6290039;27;96445;-63
2022/03/11 03:58:51;;;;;;;;;39.20;33.00;;;;;1.05;38.25;100530.81;6290363;27;96664;-62
2022/03/11 04:01:54;;;;;;;;;38.00;32.00;;;;;1.05;38.39;100533.47;6289129;27;96709;-63
2022/03/11 04:04:58;;;;;;;;;38.00;31.40;;;;;0.99;38.26;100533.94;6290347;27;97566;-63
2022/03/11 04:08:02;;;;;;;;;38.67;32.00;;;;;1.04;38.11;100541.56;6305675;27;97191;-62
2022/03/11 04:11:06;;;;;;;;;39.40;30.60;;;;;1.06;38.42;100545.81;6288461;27;96681;-63
2022/03/11 04:14:10;;;;;;;;;37.00;32.00;;;;;1.08;38.32;100543.00;6287818;27;98457;-63
2022/03/11 04:17:13;;;;;;;;;36.80;31.80;;;;;1.08;38.18;100548.31;6291089;27;97472;-64
2022/03/11 04:20:17;;;;;;;;;37.60;30.00;;;;;1.03;38.19;100548.69;6288405;27;97000;-63
2022/03/11 04:23:20;;;;;;;;;41.40;31.80;;;;;1.01;38.39;100542.66;6288263;27;96572;-63
2022/03/11 04:26:25;;;;;;;;;38.20;30.00;;;;;1.00;38.54;100540.13;6275816;27;97548;-64
2022/03/11 04:29:29;;;;;;;;;37.00;32.00;;;;;1.01;38.72;100539.16;6288630;27;96583;-62
2022/03/11 04:32:33;;;;;;;;;36.00;31.60;;;;;1.07;38.58;100547.50;6287917;27;97427;-63
2022/03/11 04:35:36;;;;;;;;;40.40;33.00;;;;;1.15;38.49;100538.91;6306289;27;97555;-63
2022/03/11 04:38:39;;;;;;;;;36.20;31.00;;;;;0.98;38.44;100528.78;6288449;27;97253;-63
2022/03/11 04:41:44;;;;;;;;;36.60;31.80;;;;;1.13;38.30;100539.03;6289112;27;97378;-63
2022/03/11 04:44:48;;;;;;;;;41.80;33.00;;;;;1.11;38.33;100556.91;6287855;27;97288;-62
2022/03/11 04:47:51;;;;;;;;;39.00;31.25;;;;;1.09;38.52;100557.97;6283877;27;96644;-63
2022/03/11 04:50:54;;;;;;;;;40.60;32.60;;;;;1.05;38.80;100551.22;6285235;27;99393;-63
2022/03/11 04:53:59;;;;;;;;;38.60;32.00;;;;;1.03;38.99;100551.34;6278764;27;98811;-63
2022/03/11 04:57:04;;;;;;;;;43.40;33.00;;;;;1.08;38.54;100549.16;6278225;27;97890;-62
2022/03/11 05:00:09;;;;;;;;;40.60;32.60;;;;;1.12;38.83;100555.09;6287659;27;97041;-63
2022/03/11 05:03:12;;;;;;;;;39.40;32.00;;;;;1.15;38.67;100552.19;6288839;27;96711;-63
2022/03/11 05:06:16;;;;;;;;;40.40;33.00;;;;;1.07;38.80;100551.97;6288921;27;96824;-62
2022/03/11 05:09:19;;;;;;;;;38.40;32.00;;;;;1.00;39.03;100556.06;6282909;27;97372;-63
2022/03/11 05:12:24;;;;;;;;;38.00;31.00;;;;;1.07;38.88;100557.28;6279275;27;96658;-63
2022/03/11 05:15:27;;;;;;;;;36.40;31.00;;;;;1.03;38.82;100555.78;6266100;27;96377;-63
2022/03/11 05:18:30;;;;;;;;;33.40;30.00;;;;;1.06;39.05;100552.91;6280232;27;96677;-63
2022/03/11 05:21:34;;;;;;;;;34.00;29.00;;;;;0.97;38.87;100549.19;6287619;27;96697;-63
2022/03/11 05:24:37;;;;;;;;;37.00;32.00;;;;;1.01;39.01;100560.41;6289195;27;97332;-62
2022/03/11 05:27:42;;;;;;;;;41.40;32.00;;;;;1.13;38.61;100560.28;6285565;27;96492;-63
2022/03/11 05:30:45;;;;;;;;;39.40;32.00;;;;;1.18;38.80;100555.44;6276525;27;97685;-63
2022/03/11 05:33:51;;;;;;;;;33.20;29.00;;;;;1.33;38.76;100548.06;6284019;27;97200;-62
2022/03/11 05:36:54;;;;;;;;;36.20;30.80;;;;;1.37;38.88;100552.16;6283031;27;96644;-63
2022/03/11 05:39:57;;;;;;;;;36.00;30.80;;;;;1.42;38.61;100563.28;6300039;27;96625;-63
2022/03/11 05:43:02;;;;;;;;;34.00;30.20;;;;;1.47;38.29;100565.56;6285428;27;97475;-62
2022/03/11 05:46:06;;;;;;;;;39.40;31.40;;;;;1.55;38.33;100569.31;6273464;27;96864;-62
2022/03/11 05:49:09;;;;;;;;;34.50;30.00;;;;;1.67;37.78;100576.28;6284916;27;97280;-63
2022/03/11 05:52:13;;;;;;;;;38.40;31.00;;;;;1.79;37.96;100579.78;6291488;27;99099;-63
2022/03/11 05:55:18;;;;;;;;;36.60;31.80;;;;;1.97;37.58;100580.09;6285978;27;96794;-63
2022/03/11 05:58:23;;;;;;;;;34.00;30.00;;;;;2.18;37.45;100584.50;6286735;27;96660;-63
2022/03/11 06:01:26;;;;;;;;;31.00;28.00;;;;;2.40;36.92;100583.53;6287178;27;96587;-63
2022/03/11 06:04:30;;;;;;;;;35.25;30.00;;;;;2.52;36.82;100590.50;6288074;27;96568;-63
2022/03/11 06:07:33;;;;;;;;;34.40;31.00;;;;;2.68;36.03;100591.88;6288284;27;97532;-63
2022/03/11 06:10:36;;;;;;;;;35.60;30.00;;;;;2.65;35.97;100589.47;6286144;27;96880;-62
2022/03/11 06:13:41;;;;;;;;;41.00;32.00;;;;;2.87;35.90;100600.00;6286262;27;96730;-62
2022/03/11 06:16:44;;;;;;;;;34.40;29.00;;;;;2.82;35.44;100560.44;6287998;27;97726;-63
2022/03/11 06:19:48;;;;;;;;;38.00;31.50;;;;;3.32;35.18;100597.84;6270762;27;98194;-63
2022/03/11 06:22:53;;;;;;;;;34.80;30.20;;;;;3.35;34.75;100589.56;6287630;27;98039;-62
2022/03/11 06:25:56;;;;;;;;;36.60;30.00;;;;;3.59;34.30;100595.41;6286133;27;97765;-63
2022/03/11 06:29:01;;;;;;;;;38.25;33.00;;;;;3.62;34.31;100591.63;6285852;27;97959;-62
2022/03/11 06:32:05;;;;;;;;;35.40;29.40;;;;;3.83;33.81;100593.25;6286495;27;96497;-63
2022/03/11 06:35:09;;;;;;;;;33.60;30.00;;;;;4.09;33.38;100598.06;6259398;27;98400;-63
2022/03/11 06:38:12;;;;;;;;;33.33;29.33;;;;;4.18;33.26;100595.41;6265639;27;97842;-64
2022/03/11 06:41:18;;;;;;;;;32.00;29.80;;;;;4.24;33.06;100599.34;6284275;27;96535;-63
2022/03/11 06:44:22;;;;;;;;;35.00;28.25;;;;;4.38;32.54;100598.09;6284932;27;96741;-63
2022/03/11 06:47:26;;;;;;;;;32.60;30.00;;;;;4.76;32.14;100604.25;6286654;27;97472;-62
2022/03/11 06:50:29;;;;;;;;;29.50;27.00;;;;;5.22;32.00;100600.78;6286895;27;98145;-62
2022/03/11 06:53:32;;;;;;;;;32.00;27.80;;;;;4.93;30.89;100508.28;6285236;27;97496;-63
2022/03/11 06:56:36;;;;;;;;;35.40;30.00;;;;;6.30;30.23;100603.59;6265396;27;98306;-63
2022/03/11 06:59:45;;;;;;;;;37.40;30.00;;;;;7.10;28.95;100599.88;6285397;27;97588;-62
2022/03/11 07:02:49;;;;;;;;;34.00;30.00;;;;;8.02;27.65;100605.34;6285178;27;97541;-62
2022/03/11 07:05:52;;;;;;;;;35.60;29.60;;;;;9.04;26.57;100611.19;6283331;27;97630;-63
2022/03/11 07:08:56;;;;;;;;;34.40;30.00;;;;;9.70;25.38;100606.50;6285447;27;96360;-62
2022/03/11 07:12:01;;;;;;;;;39.00;32.00;;;;;10.36;24.90;100601.47;6287147;27;98158;-62
2022/03/11 07:15:07;;;;;;;;;34.60;30.00;;;;;11.12;23.81;100603.22;6285802;27;97479;-62
2022/03/11 07:18:12;;;;;;;;;33.67;30.00;;;;;11.54;22.53;100602.59;6287410;27;97013;-62
2022/03/11 07:21:15;;;;;;;;;36.60;30.00;;;;;12.27;22.14;100600.84;6286775;27;97476;-62
2022/03/11 07:24:18;;;;;;;;;35.40;27.40;;;;;12.92;20.99;100604.22;6285927;27;97121;-62
2022/03/11 07:27:22;;;;;;;;;30.80;26.60;;;;;13.55;20.92;100598.84;6286243;27;97527;-62
2022/03/11 07:30:27;;;;;;;;;30.40;29.40;;;;;14.26;20.25;100592.13;6284864;27;97041;-62
2022/03/11 07:33:30;;;;;;;;;34.00;28.20;;;;;14.87;19.33;100594.75;6285581;27;97168;-61
2022/03/11 07:36:34;;;;;;;;;34.60;30.00;;;;;15.30;18.81;100597.84;6283801;27;98569;-62
2022/03/11 07:39:37;;;;;;;;;34.40;31.00;;;;;15.55;18.34;100588.88;6285677;27;97630;-63
2022/03/11 07:42:42;;;;;;;;;30.60;26.00;;;;;15.82;18.18;100584.19;6289301;27;96899;-63
2022/03/11 07:45:47;;;;;;;;;30.50;27.00;;;;;16.28;18.06;100588.56;6289150;27;97538;-63
2022/03/11 07:48:50;;;;;;;;;33.00;27.00;;;;;16.67;17.59;100584.81;6289435;27;97145;-63
2022/03/11 07:51:54;;;;;;;;;33.00;29.25;;;;;16.76;17.14;100591.69;6290899;27;96522;-63
2022/03/11 07:54:57;;;;;;;;;33.00;28.75;;;;;16.95;17.09;100600.75;6290668;27;96384;-63
2022/03/11 07:58:00;;;;;;;;;32.40;27.40;;;;;17.19;17.00;100595.31;6290698;27;96981;-63
2022/03/11 08:01:07;;;;;;;;;24.00;22.00;;;;;17.08;16.44;100597.91;6290686;27;96424;-63
2022/03/11 08:04:13;;;;;;;;;32.00;28.40;;;;;16.72;16.80;100593.16;6288392;27;97574;-63
2022/03/11 08:07:16;;;;;;;;;28.80;25.00;;;;;17.13;16.74;100604.38;6290818;27;97425;-63
2022/03/11 08:10:20;;;;;;;;;31.40;25.40;;;;;17.65;16.13;100596.75;6290027;27;96856;-63
2022/03/11 08:13:24;;;;;;;;;28.80;24.00;;;;;18.39;16.09;100590.19;6289320;27;96566;-63
2022/03/11 08:16:29;;;;;;;;;25.60;23.20;;;;;18.73;15.60;100588.66;6289517;27;96871;-64
2022/03/11 08:19:32;;;;;;;;;24.00;20.00;;;;;18.03;15.19;100591.09;6290156;27;96491;-63
2022/03/11 08:22:36;;;;;;;;;25.60;21.20;;;;;17.50;15.13;100585.34;6290315;27;97039;-64
2022/03/11 08:25:40;;;;;;;;;27.60;24.00;;;;;18.02;15.70;100583.97;6288565;27;96852;-63
2022/03/11 08:28:44;;;;;;;;;21.20;19.00;;;;;17.84;14.53;100582.06;6288546;27;98573;-64
2022/03/11 08:32:09;;;;;;;;;21.40;19.00;;;;;17.97;15.14;100592.84;6262900;27;98468;-63
2022/03/11 08:35:13;;;;;;;;;21.40;20.00;;;;;18.12;14.76;100582.38;6263199;27;97301;-63
2022/03/11 08:38:17;;;;;;;;;20.60;18.00;;;;;18.22;14.96;100592.72;6275392;27;96633;-63
2022/03/11 08:41:22;;;;;;;;;18.25;15.50;;;;;17.86;13.82;100599.06;6288224;27;97007;-63
2022/03/11 08:44:25;;;;;;;;;19.80;17.80;;;;;18.06;14.46;100598.81;6290165;27;97863;-63
2022/03/11 08:47:30;;;;;;;;;19.25;17.00;;;;;18.12;14.33;100603.38;6271165;27;97798;-63
2022/03/11 08:50:34;;;;;;;;;21.20;18.80;;;;;18.19;14.78;100593.19;6288170;27;97149;-63
2022/03/11 08:53:38;;;;;;;;;22.00;19.00;;;;;17.89;14.57;100604.03;6288174;27;97746;-64
2022/03/11 08:56:41;;;;;;;;;21.00;19.00;;;;;18.10;14.72;100598.13;6289451;27;97607;-63
2022/03/11 08:59:44;;;;;;;;;17.00;16.00;;;;;18.47;14.01;100593.41;6289265;27;96656;-64
2022/03/11 09:02:49;;;;;;;;;19.50;15.25;;;;;18.15;13.93;100611.91;6289543;27;96347;-64
2022/03/11 09:05:53;;;;;;;;;13.00;13.00;;;;;17.89;13.94;100595.84;6289815;27;97415;-63
2022/03/11 09:08:56;;;;;;;;;19.00;17.00;;;;;17.75;14.91;100588.88;6289688;27;97417;-64
2022/03/11 09:11:59;;;;;;;;;17.00;15.00;;;;;17.29;14.15;100595.63;6289350;27;97553;-64
2022/03/11 09:15:02;;;;;;;;;19.00;17.00;;;;;17.26;14.28;100584.31;6270181;27;97083;-64
2022/03/11 09:18:07;;;;;;;;;20.20;17.00;;;;;17.54;15.02;100581.13;6287355;27;96478;-63
2022/03/11 09:21:11;;;;;;;;;19.00;16.60;;;;;18.11;14.57;100566.19;6285534;27;97408;-63
2022/03/11 09:24:15;;;;;;;;;19.00;17.00;;;;;18.45;13.82;100581.91;6289048;27;96390;-65
2022/03/11 09:27:19;;;;;;;;;16.00;14.25;;;;;18.46;14.19;100569.91;6286549;27;98395;-63
2022/03/11 09:30:23;;;;;;;;;18.60;16.00;;;;;18.66;13.41;100566.09;6288768;27;96745;-63
2022/03/11 09:33:28;;;;;;;;;15.00;13.00;;;;;18.78;13.17;100565.03;6288766;27;97449;-64
2022/03/11 09:36:31;;;;;;;;;14.00;11.00;;;;;18.59;12.89;100571.63;6288876;27;96701;-64
2022/03/11 09:39:34;;;;;;;;;14.60;12.40;;;;;17.87;13.39;100578.06;6288339;27;96511;-64
2022/03/11 09:42:39;;;;;;;;;18.00;13.25;;;;;18.44;13.56;100571.19;6285736;27;97072;-64
2022/03/11 09:45:44;;;;;;;;;13.00;12.60;;;;;18.88;12.54;100569.91;6283908;27;97371;-64
2022/03/11 09:48:51;;;;;;;;;13.00;12.60;;;;;19.14;12.64;100566.75;6288735;27;97156;-64
2022/03/11 09:52:01;;;;;;;;;11.00;10.00;;;;;19.42;12.17;100555.09;6287690;27;97002;-64
2022/03/11 09:55:06;;;;;;;;;13.20;10.80;;;;;19.87;11.95;100568.97;6286168;27;97925;-64
2022/03/11 09:58:10;;;;;;;;;11.25;11.00;;;;;19.95;11.67;100556.81;6288598;27;96446;-64
2022/03/11 10:01:13;;;;;;;;;12.00;10.00;;;;;20.01;11.48;100561.31;6288075;27;96558;-64
2022/03/11 10:04:18;;;;;;;;;10.50;9.00;;;;;19.77;10.78;100572.34;6287563;27;96472;-64
2022/03/11 10:07:25;;;;;;;;;12.00;10.40;;;;;18.24;10.71;100563.28;6288234;27;97428;-64
2022/03/11 10:10:30;;;;;;;;;11.25;9.25;;;;;18.42;11.60;100565.16;6288732;27;96424;-64
2022/03/11 10:13:40;;;;;;;;;12.00;10.33;;;;;18.02;11.79;100564.84;6288461;27;96676;-63
2022/03/11 10:16:45;;;;;;;;;12.80;11.00;;;;;18.16;11.62;100550.81;6278637;27;97513;-64
2022/03/11 10:20:02;;;;;;;;;12.00;10.50;;;;;18.07;11.42;100559.53;6284783;27;97549;-64
2022/03/11 10:23:10;;;;;;;;;13.00;12.00;;;;;18.40;11.71;100564.53;6285512;27;97075;-64
2022/03/11 10:26:13;;;;;;;;;13.00;13.00;;;;;17.79;11.66;100567.47;6285903;27;97471;-64
2022/03/11 10:29:18;;;;;;;;;12.00;11.00;;;;;17.38;12.02;100568.91;6283598;27;97537;-63
2022/03/11 10:32:25;;;;;;;;;12.60;12.00;;;;;16.71;12.44;100573.25;6284456;27;98368;-63
2022/03/11 10:35:36;;;;;;;;;12.60;11.00;;;;;16.94;12.38;100572.69;6285823;27;96605;-64
2022/03/11 10:38:46;;;;;;;;;14.00;12.00;;;;;15.21;12.47;100567.34;6285907;27;97435;-64
2022/03/11 10:41:50;;;;;;;;;12.00;12.00;;;;;14.30;13.39;100558.09;6266463;27;96817;-63
2022/03/11 10:44:59;;;;;;;;;12.00;12.00;;;;;14.33;13.71;100560.38;6282612;27;97581;-63
2022/03/11 10:48:02;;;;;;;;;13.40;11.40;;;;;14.08;14.18;100556.56;6286197;27;96602;-64
2022/03/11 10:51:28;;;;;;;;;11.80;11.00;;;;;14.14;14.01;100558.47;6282007;27;96775;-63
2022/03/11 10:54:32;;;;;;;;;11.00;11.00;;;;;15.02;13.83;100547.31;6285516;27;96749;-63
2022/03/11 10:57:37;;;;;;;;;14.00;12.00;;;;;15.09;13.56;100548.16;6282364;27;96769;-63
2022/03/11 11:00:43;;;;;;;;;11.00;9.00;;;;;14.01;13.54;100555.72;6287221;27;97352;-63
2022/03/11 11:03:47;;;;;;;;;11.50;10.50;;;;;14.01;13.86;100556.56;6287167;27;96448;-64
2022/03/11 11:06:53;;;;;;;;;10.80;8.80;;;;;13.94;13.81;100563.81;6285739;27;98484;-63
2022/03/11 11:10:01;;;;;;;;;10.75;9.00;;;;;13.92;14.29;100551.50;6303717;27;97017;-64
2022/03/11 11:13:06;;;;;;;;;14.00;13.00;;;;;14.24;13.98;100545.34;6285968;27;96497;-65
2022/03/11 11:16:10;;;;;;;;;12.00;10.20;;;;;14.16;13.38;100545.53;6280308;27;97566;-63
2022/03/11 11:19:15;;;;;;;;;12.00;10.00;;;;;14.08;13.77;100537.56;6284182;27;97450;-64
2022/03/11 11:22:22;;;;;;;;;9.25;9.00;;;;;14.23;13.74;100540.94;6283206;27;97539;-63
2022/03/11 11:25:25;;;;;;;;;12.00;10.40;;;;;13.71;13.87;100525.34;6266654;27;96556;-63
2022/03/11 11:28:29;;;;;;;;;13.00;11.00;;;;;13.98;13.61;100532.53;6268015;27;97797;-63
2022/03/11 11:31:34;;;;;;;;;8.00;8.00;;;;;13.29;13.75;100510.16;6265174;27;98546;-64
2022/03/11 11:34:38;;;;;;;;;10.80;9.00;;;;;13.57;13.86;100529.88;6284256;27;96487;-63
2022/03/11 11:37:47;;;;;;;;;8.50;8.00;;;;;13.22;14.14;100525.50;6288401;27;100091;-63
2022/03/11 11:41:05;;;;;;;;;10.00;9.40;;;;;14.07;14.38;100530.50;6289488;27;96940;-63
2022/03/11 11:44:08;;;;;;;;;10.00;9.00;;;;;14.62;12.84;100522.03;6284420;27;96463;-64
2022/03/11 11:47:15;;;;;;;;;8.20;7.20;;;;;14.47;12.90;100520.56;6291020;27;97488;-63
2022/03/11 11:50:18;;;;;;;;;10.00;10.00;;;;;14.60;13.01;100520.59;6289272;27;96794;-63
2022/03/11 11:53:34;;;;;;;;;9.80;8.00;;;;;14.89;12.94;100478.59;6289440;27;96586;-64
2022/03/11 11:56:39;;;;;;;;;11.00;9.20;;;;;15.80;13.32;100501.13;6282103;27;97526;-64
2022/03/11 11:59:42;;;;;;;;;11.75;9.00;;;;;16.47;12.31;100509.50;6290701;27;96441;-63
2022/03/11 12:02:45;;;;;;;;;6.60;6.60;;;;;15.89;11.04;100505.28;6268278;27;97539;-64
2022/03/11 12:05:49;;;;;;;;;8.60;7.00;;;;;14.84;12.32;100502.84;6265630;27;96932;-63
2022/03/11 12:08:54;;;;;;;;;8.00;6.60;;;;;14.82;12.27;100496.78;6283431;27;97525;-63
2022/03/11 12:11:57;;;;;;;;;6.60;6.40;;;;;14.59;11.90;100499.91;6291028;27;96847;-63
2022/03/11 12:15:17;;;;;;;;;7.75;7.00;;;;;15.03;12.73;100491.94;6287674;27;97837;-63
2022/03/11 12:18:44;;;;;;;;;11.00;8.00;;;;;15.39;11.97;100485.19;6273929;27;96663;-63
2022/03/11 12:21:47;;;;;;;;;7.20;7.00;;;;;15.40;12.24;100493.09;6288554;27;97240;-63
2022/03/11 12:25:05;;;;;;;;;11.00;8.75;;;;;15.51;11.91;100484.31;6289142;27;97447;-64
2022/03/11 12:28:13;;;;;;;;;6.60;6.00;;;;;15.10;12.89;100483.81;6278419;27;98454;-64
2022/03/11 12:31:24;;;;;;;;;9.20;8.00;;;;;15.05;12.74;100459.97;6266471;27;97138;-64
2022/03/11 12:34:28;;;;;;;;;7.00;7.00;;;;;15.20;12.24;100472.50;6289229;27;96921;-64
2022/03/11 12:37:33;;;;;;;;;9.00;7.20;;;;;15.86;12.29;100473.06;6289246;27;96908;-64
2022/03/11 12:40:40;;;;;;;;;6.00;6.00;;;;;15.68;12.13;100457.50;6288048;27;98180;-64
2022/03/11 12:43:47;;;;;;;;;6.60;6.00;;;;;15.04;12.03;100465.63;6290565;27;96661;-64
2022/03/11 12:46:50;;;;;;;;;9.00;7.50;;;;;14.48;13.01;100457.94;6289422;27;97461;-63
2022/03/11 12:50:01;;;;;;;;;6.00;6.00;;;;;14.38;13.10;100470.25;6288880;27;97583;-64
2022/03/11 12:53:08;;;;;;;;;6.00;6.00;;;;;13.85;12.59;100462.84;6288448;27;96575;-63
2022/03/11 12:56:13;;;;;;;;;9.00;7.60;;;;;13.35;13.32;100457.84;6290111;27;98059;-63
2022/03/11 12:59:18;;;;;;;;;8.50;7.50;;;;;13.88;13.49;100448.88;6290555;27;97160;-63
2022/03/11 13:02:22;;;;;;;;;8.00;7.00;;;;;13.12;13.32;100447.34;6289231;27;96382;-63
2022/03/11 13:05:28;;;;;;;;;9.40;8.00;;;;;12.26;13.99;100458.56;6288247;27;98434;-63
2022/03/11 13:08:32;;;;;;;;;10.00;8.67;;;;;12.11;14.15;100454.06;6289298;27;96469;-64
2022/03/11 13:11:37;;;;;;;;;7.00;6.00;;;;;12.40;14.24;100461.19;6288021;27;96963;-63
2022/03/11 13:14:40;;;;;;;;;8.00;6.00;;;;;12.51;14.31;100449.81;6285667;27;96906;-63
2022/03/11 13:17:45;;;;;;;;;8.00;6.40;;;;;12.31;14.27;100453.41;6289411;27;97456;-63
2022/03/11 13:20:56;;;;;;;;;7.00;7.00;;;;;12.50;14.53;100444.63;6287815;27;97454;-63
2022/03/11 13:23:59;;;;;;;;;7.50;6.00;;;;;12.88;14.65;100442.38;6287820;27;97433;-63
2022/03/11 13:27:08;;;;;;;;;10.00;8.00;;;;;13.51;14.18;100440.44;6288827;27;97492;-63
2022/03/11 13:30:13;;;;;;;;;9.00;8.40;;;;;13.57;13.00;100437.75;6271625;27;97996;-63
2022/03/11 13:33:20;;;;;;;;;7.20;6.00;;;;;13.68;13.36;100425.50;6283692;27;97558;-63
2022/03/11 13:36:25;;;;;;;;;7.00;6.00;;;;;13.58;13.28;100425.88;6264037;27;97710;-63
2022/03/11 13:39:29;;;;;;;;;6.60;6.00;;;;;13.33;13.58;100427.44;6285854;27;98893;-62
2022/03/11 13:42:33;;;;;;;;;5.80;5.80;;;;;13.30;13.54;100423.25;6262661;27;96911;-62
2022/03/11 13:45:37;;;;;;;;;5.00;5.00;;;;;12.91;13.29;100417.59;6274103;27;97483;-62
2022/03/11 13:48:40;;;;;;;;;5.80;5.40;;;;;13.05;13.93;100413.13;6288595;27;97536;-63
2022/03/11 13:51:48;;;;;;;;;5.50;5.00;;;;;13.20;13.71;100417.38;6271723;27;96756;-63
2022/03/11 13:55:03;;;;;;;;;6.00;5.00;;;;;13.61;13.70;100411.91;6283917;27;97123;-63
2022/03/11 13:58:16;;;;;;;;;6.00;5.00;;;;;14.24;13.53;100405.13;6281452;27;96621;-63
2022/03/11 14:01:19;;;;;;;;;8.67;7.00;;;;;14.13;12.41;100405.72;6286507;27;97432;-63
2022/03/11 14:04:23;;;;;;;;;8.40;6.00;;;;;14.18;13.13;100405.94;6300685;27;97416;-63
2022/03/11 14:07:27;;;;;;;;;6.00;5.80;;;;;13.55;13.00;100395.63;6271001;27;98248;-63
2022/03/11 14:10:36;;;;;;;;;7.25;7.00;;;;;13.18;12.92;100407.78;6288201;27;97868;-63